Spraggs, Pennsylvania
Current Conditions -  °F | °C
As of 11:17 AM on Wednesday 26 Nov 2014 (Local Time) from KMGW Reporting Station
Light Snow Light Snow  
Wind Chill: 34°   Ceiling: 1900
Heat Index: 34°   Visibility: 1mi
Dew Point: 30°   Wind: 0mph
Humidity: 85%   Direction: NA
Pressure: 30.05"   Gusts: NA
Location:  39.78°N, 80.22°W
Report Text: KMGW 261617Z 00000KT 1SM -SN BR FEW002 BKN019 OVC027 01/M01 A3005 RMK AO2 UPE01FZRAB01E15SNB15 P0002 I1000 T00111011
Loading
Personal Weather Stations






























Interactive Weather Map New forecast layout! Learn more

10-Day Weather Forecast

Advertisements
Track Severe Weather on mobile